createdAt,value
2023-05-12T00:01:17.645Z,4.00
2023-05-12T00:03:44.611Z,4.07
2023-05-12T00:06:12.426Z,4.10
2023-05-12T00:08:39.354Z,3.90
2023-05-12T00:11:06.257Z,4.47
2023-05-12T00:13:33.404Z,4.30
2023-05-12T00:16:00.666Z,3.90
2023-05-12T00:18:28.760Z,4.18
2023-05-12T00:20:55.983Z,4.53
2023-05-12T00:23:23.137Z,3.97
2023-05-12T00:25:50.580Z,4.05
2023-05-12T00:28:19.024Z,3.85
2023-05-12T00:30:45.909Z,3.60
2023-05-12T00:33:13.258Z,4.20
2023-05-12T00:35:40.220Z,4.18
2023-05-12T00:38:07.284Z,5.13
2023-05-12T00:40:34.184Z,4.50
2023-05-12T00:43:01.804Z,4.65
2023-05-12T00:45:29.907Z,4.28
2023-05-12T00:47:57.606Z,3.83
2023-05-12T00:50:24.791Z,4.38
2023-05-12T00:52:52.473Z,4.47
2023-05-12T00:55:19.718Z,4.28
2023-05-12T00:57:46.750Z,5.63
2023-05-12T01:00:14.095Z,4.88
2023-05-12T01:02:41.360Z,3.78
2023-05-12T01:05:10.070Z,4.97
2023-05-12T01:07:39.088Z,4.70
2023-05-12T01:10:17.772Z,5.00
2023-05-12T01:12:45.141Z,4.47
2023-05-12T01:15:12.887Z,4.40
2023-05-12T01:17:45.349Z,5.88
2023-05-12T01:20:15.016Z,6.18
2023-05-12T01:22:42.540Z,5.30
2023-05-12T01:25:12.132Z,5.10
2023-05-12T01:27:41.249Z,4.60
2023-05-12T01:30:09.738Z,5.30
2023-05-12T01:32:40.552Z,5.35
2023-05-12T01:35:07.980Z,6.25
2023-05-12T01:37:35.056Z,4.28
2023-05-12T01:40:02.534Z,4.07
2023-05-12T01:42:29.687Z,3.47
2023-05-12T01:44:56.411Z,4.13
2023-05-12T01:47:23.805Z,4.05
2023-05-12T01:49:51.215Z,4.10
2023-05-12T01:52:18.235Z,4.40
2023-05-12T01:54:45.116Z,3.70
2023-05-12T01:57:12.136Z,4.45
2023-05-12T01:59:38.926Z,4.68
2023-05-12T02:02:06.155Z,4.13
2023-05-12T02:04:32.995Z,4.13
2023-05-12T02:07:00.206Z,4.57
2023-05-12T02:09:26.974Z,4.07
2023-05-12T02:11:54.237Z,4.05
2023-05-12T02:14:21.005Z,4.10
2023-05-12T02:16:52.681Z,4.28
2023-05-12T02:19:20.920Z,4.55
2023-05-12T02:21:48.578Z,4.07
2023-05-12T02:24:16.625Z,4.38
2023-05-12T02:26:44.049Z,5.35
2023-05-12T02:29:11.963Z,4.15
2023-05-12T02:31:39.243Z,4.00
2023-05-12T02:34:06.817Z,3.90
2023-05-12T02:36:34.058Z,4.60
2023-05-12T02:39:01.001Z,4.13
2023-05-12T02:41:28.239Z,3.92
2023-05-12T02:43:55.111Z,3.83
2023-05-12T02:46:22.387Z,3.90
2023-05-12T02:48:49.199Z,4.20
2023-05-12T02:51:16.256Z,4.63
2023-05-12T02:53:43.025Z,4.25
2023-05-12T02:56:10.458Z,4.32
2023-05-12T02:58:37.306Z,4.72
2023-05-12T03:01:10.838Z,4.20
2023-05-12T03:03:38.902Z,4.45
2023-05-12T03:06:06.822Z,4.50
2023-05-12T03:08:33.610Z,3.92
2023-05-12T03:11:00.734Z,3.75
2023-05-12T03:13:27.598Z,4.03
2023-05-12T03:15:54.571Z,4.30
2023-05-12T03:18:21.448Z,4.20
2023-05-12T03:20:48.630Z,4.00
2023-05-12T03:23:15.453Z,4.93
2023-05-12T03:25:42.514Z,4.03
2023-05-12T03:28:09.377Z,4.10
2023-05-12T03:30:36.373Z,4.55
2023-05-12T03:33:03.251Z,3.80
2023-05-12T03:35:31.037Z,4.28
2023-05-12T03:37:58.007Z,4.03
2023-05-12T03:40:25.012Z,4.50
2023-05-12T03:42:52.049Z,4.10
2023-05-12T03:45:19.309Z,4.88
2023-05-12T03:47:46.189Z,4.20
2023-05-12T03:50:13.582Z,4.25
2023-05-12T03:52:41.483Z,4.40
2023-05-12T03:55:09.369Z,4.30
2023-05-12T03:57:37.748Z,3.97
2023-05-12T04:00:06.044Z,4.22
2023-05-12T04:02:33.003Z,4.28
2023-05-12T04:05:00.183Z,4.30
2023-05-12T04:07:27.210Z,3.70
2023-05-12T04:09:54.250Z,3.63
2023-05-12T04:12:21.002Z,4.43
2023-05-12T04:14:48.310Z,4.53
2023-05-12T04:17:15.350Z,3.78
2023-05-12T04:19:42.880Z,3.70
2023-05-12T04:22:09.820Z,4.00
2023-05-12T04:24:38.684Z,4.15
2023-05-12T04:27:07.241Z,4.15
2023-05-12T04:29:34.494Z,3.85
2023-05-12T04:32:01.419Z,4.80
2023-05-12T04:34:28.613Z,4.30
2023-05-12T04:36:55.379Z,4.20
2023-05-12T04:39:22.389Z,4.45
2023-05-12T04:41:49.931Z,4.50
2023-05-12T04:44:17.211Z,4.63
2023-05-12T04:46:44.158Z,3.95
2023-05-12T04:49:11.596Z,4.38
2023-05-12T04:51:43.059Z,4.53
2023-05-12T04:54:11.071Z,4.20
2023-05-12T04:56:37.900Z,3.60
2023-05-12T04:59:05.171Z,3.85
2023-05-12T05:01:32.218Z,4.28
2023-05-12T05:03:59.476Z,4.43
2023-05-12T05:06:26.262Z,3.85
2023-05-12T05:08:53.395Z,4.60
2023-05-12T05:11:21.885Z,4.07
2023-05-12T05:13:48.978Z,4.28
2023-05-12T05:16:15.872Z,4.55
2023-05-12T05:18:46.630Z,4.38
2023-05-12T05:21:17.106Z,4.05
2023-05-12T05:23:44.160Z,4.07
2023-05-12T05:26:11.124Z,3.75
2023-05-12T05:28:40.041Z,4.07
2023-05-12T05:31:07.670Z,4.32
2023-05-12T05:33:34.721Z,4.43
2023-05-12T05:36:01.885Z,4.63
2023-05-12T05:38:28.992Z,4.15
2023-05-12T05:40:55.998Z,3.95
2023-05-12T05:43:23.449Z,4.32
2023-05-12T05:45:51.008Z,4.35
2023-05-12T05:48:18.423Z,4.45
2023-05-12T05:50:45.250Z,4.35
2023-05-12T05:53:12.308Z,4.35
2023-05-12T05:55:39.225Z,4.38
2023-05-12T05:58:06.316Z,4.63
2023-05-12T06:00:33.031Z,3.97
2023-05-12T06:03:00.281Z,4.57
2023-05-12T06:05:27.340Z,4.50
2023-05-12T06:07:54.387Z,4.75
2023-05-12T06:10:21.643Z,4.85
2023-05-12T06:12:48.897Z,4.72
2023-05-12T06:15:15.869Z,4.90
2023-05-12T06:17:42.964Z,4.90
2023-05-12T06:20:10.309Z,4.95
2023-05-12T06:22:37.467Z,5.00
2023-05-12T06:25:04.550Z,5.68
2023-05-12T06:27:31.781Z,4.55
2023-05-12T06:29:58.557Z,5.88
2023-05-12T06:32:26.476Z,5.30
2023-05-12T06:34:53.233Z,5.55
2023-05-12T06:37:20.251Z,4.10
2023-05-12T06:39:46.959Z,4.65
2023-05-12T06:42:13.975Z,4.38
2023-05-12T06:44:42.334Z,4.45
2023-05-12T06:47:09.781Z,4.45
2023-05-12T06:49:38.118Z,4.30
2023-05-12T06:52:06.775Z,5.75
2023-05-12T06:54:34.209Z,4.45
2023-05-12T06:57:01.544Z,3.97
2023-05-12T06:59:28.376Z,3.80
2023-05-12T07:01:55.743Z,4.28
2023-05-12T07:04:23.648Z,4.10
2023-05-12T07:06:52.115Z,4.53
2023-05-12T07:09:19.097Z,4.15
2023-05-12T07:11:47.111Z,4.38
2023-05-12T07:14:14.440Z,4.07
2023-05-12T07:16:41.551Z,4.05
2023-05-12T07:19:09.692Z,4.72
2023-05-12T07:21:37.271Z,4.15
2023-05-12T07:24:06.149Z,4.45
2023-05-12T07:26:33.683Z,4.03
2023-05-12T07:29:01.077Z,4.25
2023-05-12T07:31:28.795Z,4.18
2023-05-12T07:33:56.406Z,4.78
2023-05-12T07:36:23.404Z,3.72
2023-05-12T07:38:50.220Z,3.63
2023-05-12T07:41:18.128Z,3.85
2023-05-12T07:43:45.662Z,4.05
2023-05-12T07:46:12.995Z,4.47
2023-05-12T07:48:40.495Z,3.60
2023-05-12T07:51:08.188Z,3.55
2023-05-12T07:53:35.593Z,3.30
2023-05-12T07:56:02.806Z,3.45
2023-05-12T07:58:29.945Z,4.22
2023-05-12T08:01:00.194Z,3.83
2023-05-12T08:03:27.406Z,4.50
2023-05-12T08:05:54.708Z,5.20
2023-05-12T08:08:21.955Z,6.65
2023-05-12T08:10:49.082Z,4.45
2023-05-12T08:13:15.931Z,4.25
2023-05-12T08:15:43.017Z,3.97
2023-05-12T08:18:10.048Z,3.92
2023-05-12T08:20:37.207Z,4.40
2023-05-12T08:23:03.971Z,3.63
2023-05-12T08:25:31.401Z,3.38
2023-05-12T08:27:59.663Z,3.28
2023-05-12T08:30:27.708Z,3.22
2023-05-12T08:32:58.079Z,3.35
2023-05-12T08:35:27.579Z,4.03
2023-05-12T08:37:59.809Z,3.72
2023-05-12T08:43:13.694Z,3.65
2023-05-12T08:45:41.552Z,3.78
2023-05-12T08:48:10.918Z,3.42
2023-05-12T08:50:41.159Z,3.25
2023-05-12T08:53:11.551Z,3.63
2023-05-12T08:55:50.210Z,3.60
2023-05-12T08:58:37.785Z,3.20
2023-05-12T09:01:09.155Z,3.40
2023-05-12T09:03:36.462Z,3.22
2023-05-12T09:06:06.253Z,3.45
2023-05-12T09:08:35.096Z,3.50
2023-05-12T09:11:02.746Z,3.40
2023-05-12T09:13:50.802Z,3.58
2023-05-12T09:16:22.512Z,3.90
2023-05-12T09:18:53.321Z,3.88
2023-05-12T09:21:21.001Z,3.47
2023-05-12T09:24:06.609Z,3.40
2023-05-12T09:26:51.570Z,3.55
2023-05-12T09:29:30.755Z,3.38
2023-05-12T09:32:03.529Z,3.13
2023-05-12T09:34:41.186Z,3.13
2023-05-12T09:37:09.239Z,2.90
2023-05-12T09:39:36.539Z,3.25
2023-05-12T09:42:03.951Z,3.15
2023-05-12T09:44:32.259Z,3.40
2023-05-12T09:47:10.348Z,3.13
2023-05-12T09:49:38.296Z,3.30
2023-05-12T09:52:05.754Z,3.38
2023-05-12T09:54:33.903Z,3.58
2023-05-12T09:57:02.849Z,3.65
2023-05-12T09:59:36.566Z,3.00
2023-05-12T10:02:06.876Z,3.17
2023-05-12T10:05:01.184Z,3.60
2023-05-12T10:07:28.967Z,2.97
2023-05-12T10:09:59.457Z,3.13
2023-05-12T10:12:27.014Z,2.88
2023-05-12T10:14:55.153Z,2.88
2023-05-12T10:17:24.700Z,2.80
2023-05-12T10:19:53.025Z,3.05
2023-05-12T10:22:20.556Z,3.17
2023-05-12T10:24:49.143Z,3.10
2023-05-12T10:27:17.373Z,3.00
2023-05-12T10:29:44.775Z,3.45
2023-05-12T10:32:11.902Z,3.08
2023-05-12T10:34:42.088Z,3.05
2023-05-12T10:37:11.393Z,2.83
2023-05-12T10:39:48.211Z,3.35
2023-05-12T10:42:18.019Z,4.15
2023-05-12T10:44:51.096Z,2.97
2023-05-12T10:47:18.460Z,3.13
2023-05-12T10:49:45.195Z,3.00
2023-05-12T10:52:13.451Z,3.13
2023-05-12T10:54:44.599Z,2.58
2023-05-12T10:57:17.635Z,2.83
2023-05-12T10:59:50.573Z,3.00
2023-05-12T11:02:21.604Z,3.40
2023-05-12T11:07:20.493Z,2.88
2023-05-12T11:09:57.730Z,3.30
2023-05-12T11:12:33.321Z,2.80
2023-05-12T11:15:02.100Z,3.08
2023-05-12T11:17:29.847Z,3.17
2023-05-12T11:19:56.954Z,3.00
2023-05-12T11:22:24.369Z,3.05
2023-05-12T11:24:53.161Z,3.33
2023-05-12T11:27:23.171Z,3.22
2023-05-12T11:30:01.329Z,2.97
2023-05-12T11:32:29.768Z,2.80
2023-05-12T11:35:07.185Z,2.90
2023-05-12T11:37:37.823Z,2.97
2023-05-12T11:40:13.794Z,2.85
2023-05-12T11:42:42.906Z,2.92
2023-05-12T11:45:23.589Z,2.83
2023-05-12T11:47:51.325Z,3.10
2023-05-12T11:50:25.131Z,2.78
2023-05-12T11:52:53.052Z,3.05
2023-05-12T11:55:22.818Z,3.08
2023-05-12T11:58:01.336Z,2.60
2023-05-12T12:00:33.655Z,2.63
2023-05-12T12:03:09.240Z,2.67
2023-05-12T12:05:36.535Z,3.08
2023-05-12T12:08:14.352Z,2.80
2023-05-12T12:10:45.633Z,4.25
2023-05-12T12:13:13.885Z,2.92
2023-05-12T12:15:40.789Z,2.78
2023-05-12T12:18:07.919Z,2.92
2023-05-12T12:20:34.846Z,2.97
2023-05-12T12:23:01.970Z,2.95
2023-05-12T12:25:29.094Z,3.33
2023-05-12T12:27:57.500Z,3.33
2023-05-12T12:30:27.375Z,2.95
2023-05-12T12:32:54.571Z,2.58
2023-05-12T12:35:22.915Z,2.85
2023-05-12T12:37:52.257Z,2.88
2023-05-12T12:40:20.256Z,3.15
2023-05-12T12:42:47.464Z,3.10
2023-05-12T12:45:14.372Z,2.80
2023-05-12T12:47:41.601Z,3.00
2023-05-12T12:50:10.565Z,3.10
2023-05-12T12:52:38.738Z,2.83
2023-05-12T12:55:06.738Z,2.50
2023-05-12T12:57:33.776Z,2.90
2023-05-12T13:00:01.459Z,3.13
2023-05-12T13:02:28.636Z,2.70
2023-05-12T13:04:55.546Z,2.95
2023-05-12T13:07:22.577Z,3.00
2023-05-12T13:09:49.411Z,2.92
2023-05-12T13:12:16.692Z,2.95
2023-05-12T13:14:43.633Z,3.20
2023-05-12T13:17:10.811Z,3.05
2023-05-12T13:19:38.325Z,2.90
2023-05-12T13:22:06.058Z,2.90
2023-05-12T13:24:33.042Z,2.92
2023-05-12T13:27:00.285Z,2.50
2023-05-12T13:29:27.166Z,2.90
2023-05-12T13:31:54.557Z,2.80
2023-05-12T13:34:21.423Z,3.05
2023-05-12T13:36:48.666Z,2.88
2023-05-12T13:39:16.115Z,2.97
2023-05-12T13:41:44.472Z,2.80
2023-05-12T13:44:11.402Z,2.80
2023-05-12T13:46:38.402Z,2.83
2023-05-12T13:49:05.198Z,3.22
2023-05-12T13:51:32.694Z,3.10
2023-05-12T13:53:59.516Z,3.20
2023-05-12T13:56:26.861Z,3.78
2023-05-12T13:58:53.588Z,3.53
2023-05-12T14:01:20.840Z,3.60
2023-05-12T14:03:47.726Z,3.70
2023-05-12T14:06:14.766Z,3.53
2023-05-12T14:08:41.921Z,4.07
2023-05-12T14:11:09.302Z,3.25
2023-05-12T14:13:36.283Z,3.15
2023-05-12T14:16:04.007Z,3.38
2023-05-12T14:18:31.204Z,3.67
2023-05-12T14:20:58.822Z,3.10
2023-05-12T14:23:25.710Z,3.40
2023-05-12T14:25:52.909Z,3.47
2023-05-12T14:28:20.079Z,3.10
2023-05-12T14:30:48.827Z,3.20
2023-05-12T14:33:15.840Z,3.33
2023-05-12T14:35:44.735Z,3.42
2023-05-12T14:38:15.281Z,3.20
2023-05-12T14:40:43.240Z,3.35
2023-05-12T14:43:10.112Z,3.45
2023-05-12T14:45:37.114Z,3.42
2023-05-12T14:48:04.258Z,4.13
2023-05-12T14:50:31.335Z,3.47
2023-05-12T14:52:58.116Z,3.17
2023-05-12T14:55:26.002Z,3.30
2023-05-12T14:57:52.751Z,3.15
2023-05-12T15:00:21.356Z,3.15
2023-05-12T15:02:48.671Z,2.72
2023-05-12T15:05:16.290Z,3.00
2023-05-12T15:07:43.535Z,3.15
2023-05-12T15:10:11.127Z,2.90
2023-05-12T15:12:37.898Z,3.03
2023-05-12T15:15:06.131Z,2.80
2023-05-12T15:17:33.053Z,3.10
2023-05-12T15:20:00.012Z,3.20
2023-05-12T15:22:27.039Z,3.50
2023-05-12T15:24:54.186Z,2.95
2023-05-12T15:27:20.987Z,3.20
2023-05-12T15:29:48.168Z,3.22
2023-05-12T15:32:15.873Z,2.80
2023-05-12T15:34:42.967Z,3.00
2023-05-12T15:37:10.850Z,3.38
2023-05-12T15:39:38.110Z,2.92
2023-05-12T15:42:07.660Z,3.03
2023-05-12T15:44:35.342Z,3.00
2023-05-12T15:47:02.368Z,2.83
2023-05-12T15:49:29.369Z,3.00
2023-05-12T15:51:56.117Z,2.90
2023-05-12T15:54:23.478Z,2.75
2023-05-12T15:56:50.384Z,3.17
2023-05-12T15:59:17.537Z,2.92
2023-05-12T16:01:44.383Z,3.20
2023-05-12T16:04:12.048Z,3.13
2023-05-12T16:06:39.022Z,3.47
2023-05-12T16:09:06.215Z,3.30
2023-05-12T16:11:33.110Z,3.28
2023-05-12T16:14:00.166Z,3.33
2023-05-12T16:16:27.038Z,3.30
2023-05-12T16:18:54.461Z,3.40
2023-05-12T16:21:21.207Z,3.13
2023-05-12T16:23:48.583Z,3.45
2023-05-12T16:26:15.338Z,3.33
2023-05-12T16:28:42.386Z,3.65
2023-05-12T16:31:09.402Z,3.72
2023-05-12T16:33:36.528Z,3.42
2023-05-12T16:36:03.630Z,3.20
2023-05-12T16:38:32.606Z,3.38
2023-05-12T16:41:00.352Z,3.53
2023-05-12T16:43:27.485Z,2.88
2023-05-12T16:46:02.286Z,3.65
2023-05-12T16:48:34.463Z,3.45
2023-05-12T16:51:05.745Z,3.28
2023-05-12T16:53:33.397Z,3.60
2023-05-12T16:56:00.521Z,3.70
2023-05-12T16:58:31.462Z,4.53
2023-05-12T17:00:59.347Z,3.80
2023-05-12T17:03:27.419Z,3.67
2023-05-12T17:05:54.400Z,4.45
2023-05-12T17:08:22.225Z,4.20
2023-05-12T17:10:49.243Z,3.90
2023-05-12T17:13:17.065Z,3.53
2023-05-12T17:15:44.056Z,4.07
2023-05-12T17:18:12.915Z,3.25
2023-05-12T17:20:40.001Z,4.13
2023-05-12T17:23:08.290Z,3.78
2023-05-12T17:25:36.686Z,4.00
2023-05-12T17:28:04.702Z,3.17
2023-05-12T17:30:32.275Z,3.78
2023-05-12T17:32:59.473Z,4.13
2023-05-12T17:35:26.559Z,3.35
2023-05-12T17:37:55.598Z,3.95
2023-05-12T17:40:23.118Z,4.20
2023-05-12T17:42:50.571Z,3.58
2023-05-12T17:45:18.047Z,4.00
2023-05-12T17:47:45.668Z,3.58
2023-05-12T17:50:14.978Z,3.55
2023-05-12T17:52:43.280Z,4.20
2023-05-12T17:55:10.694Z,3.80
2023-05-12T17:57:38.201Z,3.97
2023-05-12T18:00:09.925Z,3.90
2023-05-12T18:02:38.449Z,3.60
2023-05-12T18:05:06.121Z,3.75
2023-05-12T18:07:33.969Z,3.58
2023-05-12T18:10:00.857Z,3.97
2023-05-12T18:12:27.970Z,4.93
2023-05-12T18:14:54.718Z,4.10
2023-05-12T18:17:22.013Z,4.22
2023-05-12T18:19:48.936Z,3.65
2023-05-12T18:22:17.614Z,3.95
2023-05-12T18:24:44.621Z,4.18
2023-05-12T18:27:12.312Z,3.55
2023-05-12T18:29:39.177Z,3.38
2023-05-12T18:32:06.328Z,4.00
2023-05-12T18:34:33.951Z,4.28
2023-05-12T18:37:01.090Z,3.88
2023-05-12T18:39:28.107Z,3.65
2023-05-12T18:41:55.412Z,5.07
2023-05-12T18:44:22.266Z,4.22
2023-05-12T18:46:49.553Z,4.30
2023-05-12T18:49:16.593Z,4.30
2023-05-12T18:51:43.661Z,3.67
2023-05-12T18:54:10.705Z,4.00
2023-05-12T18:56:37.863Z,4.63
2023-05-12T18:59:04.805Z,3.70
2023-05-12T19:01:33.098Z,4.13
2023-05-12T19:03:59.797Z,4.00
2023-05-12T19:06:26.782Z,4.57
2023-05-12T19:08:53.693Z,5.05
2023-05-12T19:11:21.014Z,4.68
2023-05-12T19:13:50.749Z,5.68
2023-05-12T19:16:18.484Z,5.85
2023-05-12T19:18:46.083Z,5.40
2023-05-12T19:21:13.345Z,5.10
2023-05-12T19:23:40.204Z,5.10
2023-05-12T19:26:07.471Z,4.30
2023-05-12T19:28:34.300Z,4.75
2023-05-12T19:31:01.412Z,4.57
2023-05-12T19:33:29.490Z,4.20
2023-05-12T19:35:56.840Z,4.28
2023-05-12T19:38:23.947Z,3.92
2023-05-12T19:40:51.163Z,3.60
2023-05-12T19:43:18.020Z,4.20
2023-05-12T19:45:45.438Z,3.95
2023-05-12T19:48:12.594Z,4.10
2023-05-12T19:50:39.885Z,4.15
2023-05-12T19:53:06.827Z,7.20
2023-05-12T19:55:34.141Z,7.82
2023-05-12T19:58:02.158Z,6.38
2023-05-12T20:00:29.354Z,8.05
2023-05-12T20:02:56.369Z,5.72
2023-05-12T20:05:24.536Z,5.07
2023-05-12T20:07:52.216Z,4.63
2023-05-12T20:10:19.576Z,4.10
2023-05-12T20:12:46.409Z,5.13
2023-05-12T20:15:13.611Z,4.63
2023-05-12T20:17:40.308Z,4.15
2023-05-12T20:20:08.146Z,4.80
2023-05-12T20:22:34.875Z,4.55
2023-05-12T20:25:04.445Z,4.82
2023-05-12T20:27:32.233Z,4.60
2023-05-12T20:29:59.721Z,4.43
2023-05-12T20:32:26.770Z,4.38
2023-05-12T20:34:53.817Z,4.10
2023-05-12T20:37:20.665Z,3.97
2023-05-12T20:39:47.733Z,3.90
2023-05-12T20:42:14.599Z,3.80
2023-05-12T20:44:42.382Z,3.90
2023-05-12T20:47:09.777Z,4.22
2023-05-12T20:49:37.089Z,4.47
2023-05-12T20:52:04.805Z,3.85
2023-05-12T20:54:32.285Z,4.50
2023-05-12T20:56:59.153Z,4.10
2023-05-12T20:59:26.339Z,4.00
2023-05-12T21:01:53.393Z,3.83
2023-05-12T21:04:20.790Z,4.65
2023-05-12T21:06:47.915Z,4.25
2023-05-12T21:09:15.147Z,4.40
2023-05-12T21:11:42.031Z,4.05
2023-05-12T21:14:09.221Z,4.85
2023-05-12T21:16:36.052Z,5.10
2023-05-12T21:19:03.228Z,4.20
2023-05-12T21:21:30.077Z,4.32
2023-05-12T21:23:57.032Z,4.32
2023-05-12T21:26:23.924Z,4.20
2023-05-12T21:28:50.961Z,4.05
2023-05-12T21:31:18.079Z,3.75
2023-05-12T21:33:45.239Z,4.20
2023-05-12T21:36:12.141Z,4.25
2023-05-12T21:38:39.129Z,4.28
2023-05-12T21:41:06.046Z,4.25
2023-05-12T21:43:33.131Z,3.45
2023-05-12T21:46:04.137Z,3.95
2023-05-12T21:48:33.389Z,4.25
2023-05-12T21:51:02.020Z,3.97
2023-05-12T21:53:29.396Z,4.00
2023-05-12T21:55:56.366Z,3.90
2023-05-12T21:58:23.832Z,3.90
2023-05-12T22:00:53.497Z,4.03
2023-05-12T22:03:21.926Z,4.43
2023-05-12T22:05:48.938Z,4.28
2023-05-12T22:08:16.358Z,3.63
2023-05-12T22:10:46.976Z,4.22
2023-05-12T22:15:41.413Z,4.38
2023-05-12T22:18:08.723Z,4.50
2023-05-12T22:20:35.720Z,3.58
2023-05-12T22:23:03.098Z,4.03
2023-05-12T22:25:29.856Z,4.15
2023-05-12T22:27:56.914Z,4.45
2023-05-12T22:30:24.081Z,3.80
2023-05-12T22:32:51.540Z,4.30
2023-05-12T22:35:18.832Z,4.18
2023-05-12T22:37:45.934Z,3.70
2023-05-12T22:40:12.816Z,3.90
2023-05-12T22:42:40.075Z,4.10
2023-05-12T22:45:07.357Z,4.10
2023-05-12T22:47:34.686Z,4.57
2023-05-12T22:50:01.411Z,4.20
2023-05-12T22:52:28.506Z,4.05
2023-05-12T22:54:55.735Z,4.45
2023-05-12T22:57:22.934Z,4.50
2023-05-12T22:59:49.928Z,4.50
2023-05-12T23:02:17.103Z,4.63
2023-05-12T23:04:45.059Z,4.07
2023-05-12T23:07:12.520Z,4.20
2023-05-12T23:09:40.104Z,4.45
2023-05-12T23:12:07.982Z,4.55
2023-05-12T23:14:35.342Z,4.50
2023-05-12T23:17:03.152Z,4.35
2023-05-12T23:19:30.424Z,4.53
2023-05-12T23:21:58.062Z,4.15
2023-05-12T23:24:25.346Z,4.07
2023-05-12T23:26:52.633Z,4.25
2023-05-12T23:29:19.724Z,4.30
2023-05-12T23:31:47.084Z,4.40
2023-05-12T23:34:13.932Z,4.20
2023-05-12T23:36:41.494Z,4.10
2023-05-12T23:39:09.729Z,4.65
2023-05-12T23:41:37.053Z,5.07
2023-05-12T23:44:04.178Z,4.30
2023-05-12T23:46:31.367Z,4.60
2023-05-12T23:48:58.294Z,4.60
2023-05-12T23:51:25.977Z,5.15
2023-05-12T23:53:52.925Z,4.63
2023-05-12T23:56:20.216Z,4.57
2023-05-12T23:58:47.734Z,4.68
